Terminal Aerodrome Forecast
Issued by NWS Rapid City, SD

Home | Current Version | Previous Version | Graphics & Text | Print | Product List | Glossary On
Versions: 1 2 3 4 5 6 7 8 9 10 11 12 13 14 15 16 17 18 19 20 21 22 23 24 25 26 27
000
FTUS43 KUNR 302145 AAD
TAFRAP
TAF AMD
KRAP 302145Z 3022/3118 VRB10G20KT P6SM TSRAGS BKN060CB
     FM302300 15010KT P6SM SCT070
     FM310600 17008KT P6SM SKC=

USA.gov is the U.S. government's official web portal to all federal, state and local government web resources and services.